Wemyss Bay, United Kingdom
Current Conditions -  °F | °C
As of 2:20 AM on Wednesday 22 Oct 2014 (Local Time) from EGPF Reporting Station
Broken Clouds Broken Clouds  
Wind Chill: 45°   Ceiling: 3500
Heat Index: 48°   Visibility: 6mi
Dew Point: 41°   Wind: 8mph
Humidity: 76%   Direction: 240°WSW
Pressure: 30.03"   Gusts: NA
Location:  55.88°N, 4.89°W
Report Text: EGPF 220120Z AUTO 24007KT 9999 BKN035 09/05 Q1017
Loading
Personal Weather Stations






























Interactive Weather Map
Tropical Storm Tracking
New forecast layout! Learn more

10-Day Weather Forecast

Advertisements
Track Severe Weather on mobile